createdAt,value
2019-04-29T00:02:25.019Z,5.47
2019-04-29T00:04:55.031Z,5.03
2019-04-29T00:07:24.950Z,5.60
2019-04-29T00:09:55.042Z,5.03
2019-04-29T00:12:26.979Z,5.03
2019-04-29T00:14:58.620Z,5.20
2019-04-29T00:17:30.124Z,4.77
2019-04-29T00:20:04.160Z,4.77
2019-04-29T00:22:34.036Z,4.43
2019-04-29T00:25:04.169Z,5.23
2019-04-29T00:27:34.246Z,5.17
2019-04-29T00:30:08.352Z,4.60
2019-04-29T00:32:38.343Z,4.80
2019-04-29T00:35:08.305Z,4.17
2019-04-29T00:37:48.885Z,4.33
2019-04-29T00:40:36.814Z,4.63
2019-04-29T00:43:08.365Z,4.23
2019-04-29T00:45:38.452Z,4.40
2019-04-29T00:48:08.382Z,4.30
2019-04-29T00:50:38.369Z,4.47
2019-04-29T00:53:08.229Z,4.90
2019-04-29T00:55:38.083Z,4.40
2019-04-29T00:58:07.987Z,4.03
2019-04-29T01:00:40.340Z,4.40
2019-04-29T01:03:10.242Z,4.70
2019-04-29T01:05:40.243Z,4.23
2019-04-29T01:08:10.156Z,4.60
2019-04-29T01:10:40.099Z,4.70
2019-04-29T01:13:09.964Z,4.47
2019-04-29T01:15:39.804Z,4.00
2019-04-29T01:18:09.875Z,4.07
2019-04-29T01:20:40.188Z,4.30
2019-04-29T01:23:10.082Z,4.20
2019-04-29T01:25:41.712Z,5.13
2019-04-29T01:28:13.202Z,4.03
2019-04-29T01:31:04.787Z,3.70
2019-04-29T01:33:34.743Z,4.30
2019-04-29T01:36:24.809Z,4.20
2019-04-29T01:38:56.308Z,3.80
2019-04-29T01:41:27.795Z,4.47
2019-04-29T01:44:04.430Z,4.03
2019-04-29T01:46:35.016Z,4.43
2019-04-29T01:49:05.109Z,4.27
2019-04-29T01:51:35.007Z,3.97
2019-04-29T01:54:05.083Z,4.13
2019-04-29T01:56:34.919Z,4.40
2019-04-29T01:59:04.896Z,4.17
2019-04-29T02:01:34.736Z,4.50
2019-04-29T02:04:04.730Z,4.50
2019-04-29T02:06:34.571Z,4.70
2019-04-29T02:09:10.040Z,3.90
2019-04-29T02:11:40.109Z,3.93
2019-04-29T02:14:10.079Z,4.53
2019-04-29T02:16:39.954Z,4.43
2019-04-29T02:19:09.784Z,3.93
2019-04-29T02:21:41.300Z,3.80
2019-04-29T02:24:12.856Z,4.27
2019-04-29T02:26:42.720Z,4.30
2019-04-29T02:29:12.556Z,4.40
2019-04-29T02:31:43.794Z,5.17
2019-04-29T02:34:13.797Z,5.03
2019-04-29T02:36:43.737Z,3.90
2019-04-29T02:39:24.474Z,4.73
2019-04-29T02:42:12.102Z,4.80
2019-04-29T02:44:42.079Z,4.53
2019-04-29T02:47:12.062Z,5.40
2019-04-29T02:49:41.916Z,4.77
2019-04-29T02:52:11.783Z,5.10
2019-04-29T02:54:41.801Z,4.73
2019-04-29T02:57:13.359Z,4.80
2019-04-29T02:59:47.734Z,4.93
2019-04-29T03:02:19.279Z,4.43
2019-04-29T03:04:50.876Z,4.77
2019-04-29T03:07:21.830Z,4.00
2019-04-29T03:09:51.883Z,5.03
2019-04-29T03:12:21.878Z,4.30
2019-04-29T03:14:51.928Z,4.50
2019-04-29T03:17:21.914Z,4.83
2019-04-29T03:20:08.550Z,4.73
2019-04-29T03:22:42.884Z,4.60
2019-04-29T03:25:13.259Z,4.33
2019-04-29T03:27:43.173Z,4.77
2019-04-29T03:30:14.345Z,4.80
2019-04-29T03:32:44.388Z,5.20
2019-04-29T03:35:14.405Z,4.53
2019-04-29T03:37:44.445Z,5.17
2019-04-29T03:40:14.556Z,5.20
2019-04-29T03:42:44.405Z,5.40
2019-04-29T03:45:14.634Z,4.70
2019-04-29T03:47:44.721Z,5.50
2019-04-29T03:50:14.704Z,4.40
2019-04-29T03:52:44.785Z,4.70
2019-04-29T03:55:14.622Z,5.40
2019-04-29T03:57:44.630Z,4.30
2019-04-29T04:00:16.544Z,4.93
2019-04-29T04:02:51.008Z,5.13
2019-04-29T04:05:25.422Z,5.50
2019-04-29T04:08:09.199Z,5.70
2019-04-29T04:10:39.146Z,5.77
2019-04-29T04:13:08.978Z,5.60
2019-04-29T04:15:38.831Z,5.87
2019-04-29T04:18:13.251Z,5.30
2019-04-29T04:20:43.114Z,6.10
2019-04-29T04:23:13.036Z,6.27
2019-04-29T04:25:42.967Z,5.93
2019-04-29T04:28:12.887Z,5.63
2019-04-29T04:30:43.117Z,6.10
2019-04-29T04:33:13.102Z,5.67
2019-04-29T04:35:43.940Z,6.03
2019-04-29T04:38:13.813Z,4.97
2019-04-29T04:40:45.402Z,5.60
2019-04-29T04:43:15.331Z,5.10
2019-04-29T04:45:45.190Z,5.07
2019-04-29T04:48:15.086Z,5.17
2019-04-29T04:50:44.941Z,5.90
2019-04-29T04:53:14.979Z,5.43
2019-04-29T04:55:46.458Z,6.80
2019-04-29T04:58:16.390Z,6.37
2019-04-29T05:00:46.247Z,5.63
2019-04-29T05:03:16.163Z,6.30
2019-04-29T05:05:46.082Z,5.90
2019-04-29T05:08:15.946Z,6.50
2019-04-29T05:10:46.755Z,5.47
2019-04-29T05:13:27.443Z,5.57
2019-04-29T05:15:48.175Z,5.80
2019-04-29T05:18:18.221Z,5.27
2019-04-29T05:20:48.205Z,5.53
2019-04-29T05:23:18.139Z,5.80
2019-04-29T05:25:47.986Z,5.70
2019-04-29T05:28:17.929Z,5.97
2019-04-29T05:30:47.824Z,6.80
2019-04-29T05:33:17.780Z,5.73
2019-04-29T05:36:01.899Z,5.77
2019-04-29T05:38:34.182Z,5.83
2019-04-29T05:41:04.114Z,5.70
2019-04-29T05:43:38.605Z,5.70
2019-04-29T05:46:13.026Z,5.23
2019-04-29T05:48:43.940Z,5.17
2019-04-29T05:51:34.545Z,4.93
2019-04-29T05:54:06.346Z,4.63
2019-04-29T05:56:36.312Z,5.27
2019-04-29T05:59:08.434Z,4.90
2019-04-29T06:01:37.884Z,4.93
2019-04-29T06:04:11.499Z,5.40
2019-04-29T06:06:39.334Z,5.40
2019-04-29T06:09:11.579Z,5.20
2019-04-29T06:11:40.884Z,5.03
2019-04-29T06:14:10.837Z,5.67
2019-04-29T06:16:40.705Z,5.03
2019-04-29T06:19:10.687Z,6.03
2019-04-29T06:21:40.570Z,4.93
2019-04-29T06:24:10.526Z,5.60
2019-04-29T06:26:43.427Z,5.37
2019-04-29T06:29:11.993Z,4.90
2019-04-29T06:31:41.916Z,5.13
2019-04-29T06:34:11.829Z,5.03
2019-04-29T06:36:41.678Z,5.00
2019-04-29T06:39:11.533Z,5.10
2019-04-29T06:41:45.382Z,4.87
2019-04-29T06:44:16.675Z,6.00
2019-04-29T06:46:44.833Z,5.70
2019-04-29T06:49:14.744Z,5.50
2019-04-29T06:51:44.606Z,5.23
2019-04-29T06:54:14.514Z,5.27
2019-04-29T06:56:44.370Z,6.13
2019-04-29T06:59:14.292Z,5.53
2019-04-29T07:01:44.237Z,5.53
2019-04-29T07:04:14.075Z,4.93
2019-04-29T07:06:56.790Z,5.93
2019-04-29T07:09:16.692Z,5.40
2019-04-29T07:11:46.567Z,5.57
2019-04-29T07:14:16.411Z,6.03
2019-04-29T07:16:46.279Z,5.60
2019-04-29T07:19:16.139Z,5.43
2019-04-29T07:21:46.946Z,6.00
2019-04-29T07:24:20.173Z,6.20
2019-04-29T07:26:49.132Z,6.10
2019-04-29T07:29:19.388Z,5.83
2019-04-29T07:31:49.796Z,6.27
2019-04-29T07:34:19.642Z,5.87
2019-04-29T07:36:53.257Z,5.80
2019-04-29T07:39:21.124Z,5.90
2019-04-29T07:41:53.751Z,6.10
2019-04-29T07:44:23.933Z,6.10
2019-04-29T07:46:57.913Z,6.23
2019-04-29T07:49:27.061Z,6.37
2019-04-29T07:51:57.312Z,5.53
2019-04-29T07:54:27.165Z,6.23
2019-04-29T07:56:57.202Z,5.77
2019-04-29T07:59:27.180Z,6.23
2019-04-29T08:01:59.797Z,6.27
2019-04-29T08:04:28.716Z,6.13
2019-04-29T08:06:59.076Z,6.67
2019-04-29T08:09:29.275Z,6.33
2019-04-29T08:11:59.497Z,7.57
2019-04-29T08:14:32.121Z,6.50
2019-04-29T08:17:02.065Z,6.87
2019-04-29T08:19:31.937Z,6.97
2019-04-29T08:22:01.917Z,6.87
2019-04-29T08:24:31.841Z,6.80
2019-04-29T08:27:01.716Z,7.20
2019-04-29T08:29:35.862Z,6.60
2019-04-29T08:32:03.169Z,6.97
2019-04-29T08:34:33.121Z,7.07
2019-04-29T08:37:03.041Z,6.83
2019-04-29T08:39:32.934Z,7.33
2019-04-29T08:42:08.842Z,6.97
2019-04-29T08:44:41.551Z,7.53
2019-04-29T08:47:23.018Z,6.70
2019-04-29T08:49:53.841Z,6.03
2019-04-29T08:52:23.743Z,7.70
2019-04-29T08:54:55.386Z,7.53
2019-04-29T08:57:25.227Z,7.00
2019-04-29T08:59:55.297Z,7.20
2019-04-29T09:02:34.468Z,7.53
2019-04-29T09:04:56.788Z,7.37
2019-04-29T09:07:26.660Z,7.10
2019-04-29T09:10:03.521Z,6.73
2019-04-29T09:12:29.394Z,7.33
2019-04-29T09:14:59.585Z,7.37
2019-04-29T09:17:29.484Z,6.27
2019-04-29T09:20:00.320Z,7.33
2019-04-29T09:22:32.275Z,7.17
2019-04-29T09:25:26.213Z,6.23
2019-04-29T09:27:56.473Z,6.80
2019-04-29T09:30:27.611Z,6.70
2019-04-29T09:32:57.561Z,6.13
2019-04-29T09:35:28.873Z,5.93
2019-04-29T09:37:59.694Z,6.43
2019-04-29T09:40:31.374Z,6.10
2019-04-29T09:43:21.474Z,5.63
2019-04-29T09:45:53.834Z,5.57
2019-04-29T09:48:24.863Z,5.67
2019-04-29T09:50:54.716Z,5.60
2019-04-29T09:53:24.654Z,6.13
2019-04-29T09:55:54.604Z,5.73
2019-04-29T09:58:24.544Z,5.73
2019-04-29T10:00:58.773Z,6.00
2019-04-29T10:03:46.992Z,6.37
2019-04-29T10:06:18.641Z,6.07
2019-04-29T10:08:48.571Z,6.03
2019-04-29T10:11:18.432Z,5.30
2019-04-29T10:13:48.262Z,5.43
2019-04-29T10:16:37.138Z,6.17
2019-04-29T10:19:24.342Z,6.20
2019-04-29T10:21:54.287Z,5.47
2019-04-29T10:24:24.142Z,5.37
2019-04-29T10:26:54.070Z,4.77
2019-04-29T10:29:25.887Z,4.90
2019-04-29T10:31:55.964Z,4.97
2019-04-29T10:34:26.919Z,5.07
2019-04-29T10:36:57.444Z,4.90
2019-04-29T10:39:47.489Z,5.30
2019-04-29T10:42:23.199Z,5.23
2019-04-29T10:45:04.803Z,5.53
2019-04-29T10:47:54.732Z,5.60
2019-04-29T10:50:34.494Z,5.20
2019-04-29T10:53:06.972Z,5.40
2019-04-29T10:55:37.429Z,4.20
2019-04-29T10:58:07.587Z,4.63
2019-04-29T11:00:58.453Z,4.67
2019-04-29T11:03:29.781Z,4.07
2019-04-29T11:06:02.086Z,3.90
2019-04-29T11:08:43.202Z,4.40
2019-04-29T11:11:22.744Z,4.97
2019-04-29T11:13:50.106Z,4.80
2019-04-29T11:16:17.606Z,4.63
2019-04-29T11:18:47.565Z,4.67
2019-04-29T11:21:18.646Z,4.33
2019-04-29T11:23:50.684Z,4.40
2019-04-29T11:26:44.576Z,5.07
2019-04-29T11:29:13.266Z,6.17
2019-04-29T11:31:43.652Z,5.67
2019-04-29T11:34:15.815Z,5.40
2019-04-29T11:36:47.070Z,4.80
2019-04-29T11:39:16.981Z,5.30
2019-04-29T11:41:50.052Z,5.67
2019-04-29T11:44:21.948Z,6.43
2019-04-29T11:46:51.663Z,6.47
2019-04-29T11:49:23.322Z,6.00
2019-04-29T11:52:08.483Z,5.93
2019-04-29T11:54:24.871Z,6.07
2019-04-29T11:56:54.732Z,5.83
2019-04-29T11:59:39.288Z,6.13
2019-04-29T12:02:16.779Z,6.13
2019-04-29T12:04:48.491Z,6.77
2019-04-29T12:07:21.142Z,5.87
2019-04-29T12:09:50.621Z,5.27
2019-04-29T12:12:22.417Z,5.60
2019-04-29T12:14:59.676Z,6.20
2019-04-29T12:17:33.921Z,5.90
2019-04-29T12:20:11.817Z,5.70
2019-04-29T12:22:48.507Z,6.57
2019-04-29T12:25:14.003Z,6.23
2019-04-29T12:27:43.879Z,6.43
2019-04-29T12:30:15.744Z,6.63
2019-04-29T12:33:01.339Z,5.73
2019-04-29T12:35:33.557Z,6.10
2019-04-29T12:38:16.955Z,5.60
2019-04-29T12:40:50.123Z,4.90
2019-04-29T12:43:38.349Z,4.17
2019-04-29T12:46:10.344Z,4.57
2019-04-29T12:48:40.530Z,4.60
2019-04-29T12:51:10.516Z,4.80
2019-04-29T12:53:44.611Z,5.00
2019-04-29T12:56:13.104Z,4.93
2019-04-29T12:58:43.962Z,5.20
2019-04-29T13:01:50.263Z,5.13
2019-04-29T13:04:05.130Z,5.73
2019-04-29T13:06:52.888Z,5.80
2019-04-29T13:09:30.143Z,5.70
2019-04-29T13:12:18.023Z,6.07
2019-04-29T13:14:34.858Z,6.00
2019-04-29T13:17:26.573Z,5.63
2019-04-29T13:20:07.401Z,7.00
2019-04-29T13:22:36.620Z,7.10
2019-04-29T13:25:10.174Z,7.10
2019-04-29T13:27:40.066Z,6.60
2019-04-29T13:30:16.013Z,6.90
2019-04-29T13:32:44.149Z,7.30
2019-04-29T13:35:14.214Z,6.80
2019-04-29T13:37:44.157Z,7.10
2019-04-29T13:40:16.314Z,6.90
2019-04-29T13:42:49.145Z,7.27
2019-04-29T13:45:24.140Z,7.60
2019-04-29T13:48:01.755Z,7.70
2019-04-29T13:50:39.792Z,7.90
2019-04-29T13:53:11.628Z,7.57
2019-04-29T13:55:49.836Z,6.80
2019-04-29T13:58:13.456Z,8.03
2019-04-29T14:01:01.937Z,7.43
2019-04-29T14:03:37.417Z,7.53
2019-04-29T14:06:08.288Z,7.90
2019-04-29T14:08:38.150Z,7.77
2019-04-29T14:11:08.231Z,7.50
2019-04-29T14:13:38.988Z,7.20
2019-04-29T14:16:11.971Z,6.90
2019-04-29T14:18:43.673Z,6.97
2019-04-29T14:21:13.103Z,7.53
2019-04-29T14:23:43.105Z,7.87
2019-04-29T14:26:13.040Z,7.80
2019-04-29T14:28:43.049Z,8.07
2019-04-29T14:31:12.999Z,7.60
2019-04-29T14:33:55.799Z,7.43
2019-04-29T14:36:26.355Z,7.70
2019-04-29T14:38:56.511Z,8.00
2019-04-29T14:41:28.063Z,7.47
2019-04-29T14:44:08.705Z,8.00
2019-04-29T14:46:49.596Z,6.93
2019-04-29T14:49:24.023Z,7.87
2019-04-29T14:51:55.030Z,7.23
2019-04-29T14:54:25.035Z,8.63
2019-04-29T14:56:54.923Z,7.87
2019-04-29T14:59:25.466Z,9.23
2019-04-29T15:02:03.052Z,8.03
2019-04-29T15:04:34.640Z,8.10
2019-04-29T15:07:05.093Z,8.37
2019-04-29T15:09:46.487Z,8.17
2019-04-29T15:12:12.960Z,8.10
2019-04-29T15:14:47.681Z,8.83
2019-04-29T15:17:22.702Z,9.30
2019-04-29T15:19:55.539Z,9.73
2019-04-29T15:22:45.445Z,9.17
2019-04-29T15:25:16.688Z,8.43
2019-04-29T15:27:47.916Z,8.43
2019-04-29T15:30:18.203Z,9.30
2019-04-29T15:32:48.136Z,8.90
2019-04-29T15:35:19.801Z,8.13
2019-04-29T15:37:49.627Z,8.80
2019-04-29T15:40:20.481Z,8.37
2019-04-29T15:42:53.042Z,8.40
2019-04-29T15:45:22.720Z,8.40
2019-04-29T15:47:54.235Z,8.87
2019-04-29T15:50:24.286Z,8.50
2019-04-29T15:52:54.126Z,8.10
2019-04-29T15:55:24.061Z,8.60
2019-04-29T15:57:54.143Z,8.37
2019-04-29T16:00:25.236Z,8.07
2019-04-29T16:02:55.668Z,8.00
2019-04-29T16:05:27.224Z,8.47
2019-04-29T16:08:04.573Z,9.10
2019-04-29T16:10:58.029Z,8.20
2019-04-29T16:13:27.649Z,8.53
2019-04-29T16:15:56.365Z,8.63
2019-04-29T16:18:26.357Z,8.97
2019-04-29T16:20:56.293Z,8.30
2019-04-29T16:23:26.222Z,8.37
2019-04-29T16:25:56.124Z,8.87
2019-04-29T16:28:31.729Z,9.27
2019-04-29T16:30:57.548Z,7.77
2019-04-29T16:33:27.481Z,8.67
2019-04-29T16:35:57.603Z,8.70
2019-04-29T16:38:28.897Z,8.90
2019-04-29T16:41:06.372Z,8.63
2019-04-29T16:43:40.692Z,8.90
2019-04-29T16:46:12.549Z,8.83
2019-04-29T16:48:42.519Z,8.63
2019-04-29T16:51:16.440Z,7.63
2019-04-29T16:53:44.189Z,8.43
2019-04-29T16:56:16.219Z,6.87
2019-04-29T16:58:45.695Z,7.60
2019-04-29T17:01:15.776Z,7.10
2019-04-29T17:03:45.710Z,7.53
2019-04-29T17:06:15.801Z,7.20
2019-04-29T17:09:02.311Z,7.13
2019-04-29T17:11:23.481Z,6.83
2019-04-29T17:13:53.655Z,6.83
2019-04-29T17:16:25.077Z,6.80
2019-04-29T17:18:55.480Z,6.37
2019-04-29T17:21:26.211Z,6.83
2019-04-29T17:23:56.157Z,7.17
2019-04-29T17:26:29.678Z,7.10
2019-04-29T17:29:11.530Z,7.40
2019-04-29T17:31:38.526Z,8.10
2019-04-29T17:34:29.410Z,8.67
2019-04-29T17:36:45.030Z,8.60
2019-04-29T17:39:15.479Z,9.37
2019-04-29T17:41:45.778Z,8.53
2019-04-29T17:44:18.622Z,10.57
2019-04-29T17:46:59.561Z,10.93
2019-04-29T17:49:40.160Z,8.33
2019-04-29T17:52:11.739Z,8.20
2019-04-29T17:54:46.075Z,8.27
2019-04-29T17:57:31.274Z,8.27
2019-04-29T18:00:08.509Z,7.53
2019-04-29T18:02:57.384Z,8.17
2019-04-29T18:05:34.512Z,7.63
2019-04-29T18:08:10.655Z,8.30
2019-04-29T18:10:47.685Z,8.50
2019-04-29T18:13:23.766Z,8.47
2019-04-29T18:16:00.937Z,9.10
2019-04-29T18:18:26.366Z,8.63
2019-04-29T18:20:59.468Z,8.57
2019-04-29T18:23:47.120Z,8.47
2019-04-29T18:26:27.674Z,9.17
2019-04-29T18:29:03.747Z,8.47
2019-04-29T18:31:31.863Z,9.93
2019-04-29T18:34:01.963Z,9.07
2019-04-29T18:36:31.978Z,9.30
2019-04-29T18:39:01.977Z,8.60
2019-04-29T18:41:35.388Z,8.70
2019-04-29T18:44:07.084Z,8.63
2019-04-29T18:46:36.882Z,8.40
2019-04-29T18:49:07.242Z,9.00
2019-04-29T18:51:38.298Z,9.10
2019-04-29T18:54:08.144Z,9.37
2019-04-29T18:56:38.008Z,8.73
2019-04-29T18:59:07.854Z,8.73
2019-04-29T19:01:38.756Z,9.00
2019-04-29T19:04:18.638Z,9.10
2019-04-29T19:06:51.218Z,8.70
2019-04-29T19:09:21.765Z,9.70
2019-04-29T19:11:55.332Z,9.33
2019-04-29T19:14:28.362Z,9.83
2019-04-29T19:17:01.244Z,9.27
2019-04-29T19:19:35.917Z,8.80
2019-04-29T19:22:07.680Z,8.87
2019-04-29T19:24:37.992Z,8.80
2019-04-29T19:27:10.351Z,9.37
2019-04-29T19:29:43.223Z,9.00
2019-04-29T19:32:14.292Z,8.97
2019-04-29T19:34:49.830Z,9.17
2019-04-29T19:37:19.670Z,9.47
2019-04-29T19:39:52.480Z,9.43
2019-04-29T19:42:29.066Z,9.37
2019-04-29T19:44:55.449Z,9.87
2019-04-29T19:47:28.192Z,9.27
2019-04-29T19:49:59.545Z,10.40
2019-04-29T19:52:32.031Z,9.10
2019-04-29T19:55:03.383Z,9.07
2019-04-29T19:57:37.945Z,10.40
2019-04-29T20:00:09.508Z,10.23
2019-04-29T20:02:48.239Z,9.33
2019-04-29T20:05:16.920Z,9.37
2019-04-29T20:07:50.702Z,9.53
2019-04-29T20:10:21.528Z,9.07
2019-04-29T20:12:54.847Z,10.53
2019-04-29T20:15:26.078Z,11.33
2019-04-29T20:18:23.384Z,11.80
2019-04-29T20:20:51.479Z,10.90
2019-04-29T20:23:26.276Z,9.77
2019-04-29T20:25:57.825Z,10.07
2019-04-29T20:28:26.229Z,10.73
2019-04-29T20:31:15.006Z,10.07
2019-04-29T20:33:28.244Z,9.23
2019-04-29T20:36:02.207Z,10.13
2019-04-29T20:38:34.173Z,9.40
2019-04-29T20:41:01.584Z,9.40
2019-04-29T20:43:31.825Z,10.37
2019-04-29T20:46:02.648Z,9.80
2019-04-29T20:48:36.747Z,10.07
2019-04-29T20:51:13.355Z,9.13
2019-04-29T20:53:40.600Z,8.53
2019-04-29T20:56:12.893Z,9.90
2019-04-29T20:58:46.215Z,9.70
2019-04-29T21:01:16.745Z,8.47
2019-04-29T21:03:52.173Z,8.93
2019-04-29T21:06:18.476Z,8.73
2019-04-29T21:08:50.951Z,9.37
2019-04-29T21:11:22.292Z,9.83
2019-04-29T21:14:07.426Z,9.43
2019-04-29T21:16:42.039Z,8.50
2019-04-29T21:19:12.743Z,30.50
2019-04-29T21:21:45.479Z,22.27
2019-04-29T21:24:18.432Z,13.33
2019-04-29T21:26:46.036Z,9.23
2019-04-29T21:29:19.377Z,9.73
2019-04-29T21:31:50.802Z,9.60
2019-04-29T21:34:21.113Z,9.43
2019-04-29T21:36:52.661Z,10.50
2019-04-29T21:39:25.124Z,9.20
2019-04-29T21:41:58.748Z,10.03
2019-04-29T21:44:29.168Z,9.13
2019-04-29T21:46:59.694Z,9.83
2019-04-29T21:49:42.738Z,10.07
2019-04-29T21:52:02.274Z,10.20
2019-04-29T21:54:32.116Z,9.80
2019-04-29T21:57:02.043Z,9.67
2019-04-29T21:59:31.887Z,9.80
2019-04-29T22:02:06.776Z,10.03
2019-04-29T22:04:37.395Z,8.83
2019-04-29T22:07:08.192Z,9.37
2019-04-29T22:09:40.612Z,10.03
2019-04-29T22:12:14.216Z,9.90
2019-04-29T22:14:45.066Z,9.90
2019-04-29T22:17:14.933Z,11.27
2019-04-29T22:19:45.156Z,10.33
2019-04-29T22:22:15.148Z,10.27
2019-04-29T22:24:45.814Z,10.27
2019-04-29T22:27:16.318Z,9.37
2019-04-29T22:29:47.504Z,10.30
2019-04-29T22:32:19.312Z,9.73
2019-04-29T22:34:56.119Z,11.37
2019-04-29T22:37:21.924Z,9.77
2019-04-29T22:39:51.811Z,10.03
2019-04-29T22:42:27.859Z,10.77
2019-04-29T22:45:00.621Z,11.27
2019-04-29T22:47:29.630Z,10.33
2019-04-29T22:50:03.296Z,10.57
2019-04-29T22:52:31.443Z,11.13
2019-04-29T22:55:01.978Z,10.90
2019-04-29T22:57:32.300Z,11.97
2019-04-29T23:00:02.262Z,11.50
2019-04-29T23:02:33.791Z,11.73
2019-04-29T23:05:04.769Z,12.57
2019-04-29T23:07:35.235Z,12.37
2019-04-29T23:10:08.037Z,12.57
2019-04-29T23:12:38.289Z,12.67
2019-04-29T23:15:08.263Z,13.03
2019-04-29T23:17:38.199Z,11.83
2019-04-29T23:20:10.115Z,12.57
2019-04-29T23:22:41.628Z,12.53
2019-04-29T23:25:16.246Z,12.47
2019-04-29T23:27:48.507Z,13.20
2019-04-29T23:30:20.646Z,13.90
2019-04-29T23:32:51.095Z,14.10
2019-04-29T23:35:21.025Z,13.63
2019-04-29T23:37:50.967Z,14.67
2019-04-29T23:40:20.904Z,14.63
2019-04-29T23:42:51.916Z,15.67
2019-04-29T23:45:22.407Z,15.50
2019-04-29T23:47:52.484Z,15.50
2019-04-29T23:50:22.470Z,15.93
2019-04-29T23:52:52.376Z,16.23
2019-04-29T23:55:25.645Z,15.90
2019-04-29T23:58:04.354Z,15.77
